Buoy 13570

sailwx.info

Track history (hours):
 
Tides and Currents Weather Stations Pressure Air Temp Water Temp Dewpoint Dewpoint Depression Visibility Wind Speed Wind Dir Waves Ship Positions

Drifting buoy 13570

Last reported at 2014-Dec-20 12:00 UTC. Time now 2014-Dec-20 13:43 UTC.
Position N 33°46' W 030°25'.

Barometer 1033.5 mb
Water temperature 19.9 ° C

Date/timePositionNaut miles runAvg speedWind from/ knotsBaromVisibWave heightAir tempDewpointWater temp
2014-Dec-20 12:00N 33°46' W 030°25'0 0.2 1033.5 19.9
2014-Dec-20 11:00N 33°46' W 030°25'0 0.4 1033.2 19.9
2014-Dec-20 10:00N 33°45' W 030°26'1 0.3 1032.5 19.9
2014-Dec-20 08:00N 33°45' W 030°25'1 0.9 1031.9 19.9
2014-Dec-20 07:00N 33°46' W 030°24'2 1.5 1031.6 19.9
2014-Dec-20 06:00N 33°47' W 030°25'0 0.0 1031.6 19.9
2014-Dec-20 05:00N 33°47' W 030°25'0 0.0 1031.9 19.9
2014-Dec-20 04:00N 33°47' W 030°25'0 0.0 1031.8 19.9
2014-Dec-20 03:00N 33°47' W 030°25'0 0.0 1032.1 19.9
2014-Dec-20 02:00N 33°47' W 030°25'1 0.5 1032.2 19.9
2014-Dec-20 00:00N 33°47' W 030°26'1 0.5 1033.0 19.9
2014-Dec-19 22:00N 33°46' W 030°25'0 0.0 1032.4 19.9
2014-Dec-19 21:00N 33°46' W 030°25'0 0.0 1032.0 19.9
2014-Dec-19 20:00N 33°46' W 030°25'0 0.1 1031.5 19.9
2014-Dec-19 18:00N 33°46' W 030°25'1 0.4 1031.0 19.9
2014-Dec-19 16:00N 33°46' W 030°24'0 0.0 1030.7 20.0
2014-Dec-19 15:00N 33°46' W 030°24'0 0.2 1030.8 20.0
2014-Dec-19 14:00N 33°46' W 030°25'0 0.0 1031.3 20.0
2014-Dec-19 08:00N 33°46' W 030°25'0 0.2 1030.5 19.9
2014-Dec-19 07:00N 33°46' W 030°25'1 0.7 1030.3 19.9
2014-Dec-19 06:00N 33°46' W 030°24'1 0.6 1030.2 19.9
2014-Dec-19 04:00N 33°47' W 030°25'0 0.4 1029.9 19.9
2014-Dec-19 03:00N 33°47' W 030°24'1 1.0 1029.8 19.9
2014-Dec-19 02:00N 33°48' W 030°23'2 0.8 1030.2 19.9
2014-Dec-18 23:00N 33°47' W 030°26'0 0.3 1030.2 19.9
2014-Dec-18 22:00N 33°47' W 030°26'0 0.0 1030.1 19.9
2014-Dec-18 21:00N 33°47' W 030°26'0 0.2 1029.8 20.0
2014-Dec-18 19:00N 33°46' W 030°26'0 0.1 1028.7 20.0
2014-Dec-18 18:00N 33°46' W 030°26'1 1.4 1028.3 20.0
2014-Dec-18 17:00N 33°47' W 030°25'0 0.0 1028.2 20.0
2014-Dec-18 16:00N 33°47' W 030°25'1 0.6 1028.1 20.0
2014-Dec-18 15:00N 33°48' W 030°25'0 0.0 1028.2 20.0
2014-Dec-18 14:00N 33°48' W 030°25'0 0.2 1028.9 20.0
2014-Dec-18 12:00N 33°48' W 030°26'0 0.2 1030.1 20.0
2014-Dec-18 11:00N 33°48' W 030°26'0 0.2 1029.8 19.9
2014-Dec-18 10:00N 33°48' W 030°26'0 0.1 1029.1 19.9
2014-Dec-18 09:00N 33°48' W 030°26'0 0.1 1028.6 19.9
2014-Dec-18 08:00N 33°48' W 030°26'0 0.3 1028.3 19.9
2014-Dec-18 07:00N 33°48' W 030°26'1 0.5 1027.6 19.9
2014-Dec-18 06:00N 33°48' W 030°26'0 0.3 1027.8 19.9
2014-Dec-18 05:00N 33°48' W 030°26'1 0.7 1028.0 19.9
2014-Dec-18 04:00N 33°48' W 030°25'1 1.2 1028.2 19.9
2014-Dec-18 03:00N 33°48' W 030°26'1 0.2 1028.4 19.9
2014-Dec-17 23:00N 33°48' W 030°26'1 0.4 1029.5 20.0
2014-Dec-17 21:00N 33°48' W 030°27'1 0.5 1029.5 20.0
2014-Dec-17 19:00N 33°47' W 030°26'0 0.0 1028.9 20.0
2014-Dec-17 18:00N 33°47' W 030°26'1 0.7 1029.1 20.0
2014-Dec-17 17:00N 33°47' W 030°26'0 0.2 1029.2 20.0
2014-Dec-17 16:00N 33°48' W 030°25'1 0.2 1029.2 20.0
2014-Dec-17 12:00N 33°48' W 030°26'0 0.3 1031.9 20.0
2014-Dec-17 11:00N 33°48' W 030°26'1 1.2 1031.7 20.0
2014-Dec-17 10:00N 33°48' W 030°27'0 0.0 1031.6 19.9
2014-Dec-17 09:00N 33°48' W 030°27'1 0.5 1031.5 19.9
2014-Dec-17 08:00N 33°47' W 030°27'1 0.4 1031.0 20.0
2014-Dec-17 06:00N 33°47' W 030°26'1 0.7 1031.4 20.0
2014-Dec-17 05:00N 33°48' W 030°26'0 0.0 1031.9 20.0
2014-Dec-17 02:00N 33°48' W 030°26'1 0.4 1033.0 20.0
2014-Dec-17 00:00N 33°47' W 030°25'0 0.2 1033.5 20.0
2014-Dec-16 22:00N 33°47' W 030°26'0 0.0 1033.7 20.0
2014-Dec-16 21:00N 33°47' W 030°26'0 0.0 1033.5 20.0
2014-Dec-16 20:00N 33°47' W 030°26'1 0.5 1033.3 20.0
2014-Dec-16 18:00N 33°47' W 030°27'2 0.1 1033.2 20.0
2014-Dec-15 23:00N 33°47' W 030°25'1 0.8 1036.3 20.0
2014-Dec-15 22:00N 33°47' W 030°24'0 0.0 1036.1 19.9
2014-Dec-15 21:00N 33°47' W 030°24'0 0.0 1035.8 20.0
2014-Dec-15 19:00N 33°47' W 030°24'0 0.0 1035.1 20.0
2014-Dec-15 18:00N 33°47' W 030°24'0 0.0 1034.7 20.0
2014-Dec-15 17:00N 33°47' W 030°24'1 0.6 1034.5 20.0
2014-Dec-15 16:00N 33°47' W 030°24'1 0.6 1034.5 20.0
2014-Dec-15 15:00N 33°47' W 030°24'0 0.0 1034.7 20.0
2014-Dec-15 14:00N 33°47' W 030°24'1 0.7 1035.2 20.0
2014-Dec-15 12:00N 33°47' W 030°22'1 1.2 1036.1 20.0
2014-Dec-15 11:00N 33°47' W 030°23'0 0.0 1035.8 20.0
2014-Dec-15 10:00N 33°47' W 030°23'1 0.6 1035.3 20.0
2014-Dec-15 08:00N 33°47' W 030°22'0 0.5 1034.8 20.0
2014-Dec-15 07:00N 33°47' W 030°23'0 0.0 1034.4 20.0
2014-Dec-15 06:00N 33°47' W 030°23'0 0.0 1034.4 20.0
2014-Dec-15 05:00N 33°47' W 030°23'1 0.6 1034.7 20.0
2014-Dec-15 04:00N 33°46' W 030°23'2 1.6 1034.9 20.0
2014-Dec-15 03:00N 33°47' W 030°21'0 0.1 1034.7 20.0
2014-Dec-14 23:00N 33°47' W 030°20'1 0.8 1035.8 20.0
2014-Dec-14 22:00N 33°47' W 030°21'1 0.6 1035.5 20.0
2014-Dec-14 21:00N 33°48' W 030°21'1 0.8 1035.4 20.0
2014-Dec-14 20:00N 33°47' W 030°20'0 0.0 1034.7 20.0
2014-Dec-14 19:00N 33°47' W 030°20'0 0.5 1034.1 20.0
2014-Dec-14 18:00N 33°47' W 030°21'0 0.5 1033.9 20.0
2014-Dec-14 17:00N 33°47' W 030°20'0 0.5 1033.5 20.0
2014-Dec-14 16:00N 33°47' W 030°21'0 0.0 1033.4 20.0
2014-Dec-14 15:00N 33°47' W 030°21'0 0.0 1033.6 20.1
2014-Dec-14 14:00N 33°47' W 030°21'1 0.7 1034.3 20.1
2014-Dec-14 12:00N 33°47' W 030°19'1 0.6 1035.7 20.0
2014-Dec-14 11:00N 33°48' W 030°19'0 0.0 1035.6 20.0
2014-Dec-14 10:00N 33°48' W 030°19'0 0.0 1035.0 20.0
2014-Dec-14 09:00N 33°48' W 030°19'0 0.0 1034.3 20.0
2014-Dec-14 07:00N 33°48' W 030°19'0 0.0 1033.5 20.0
2014-Dec-14 06:00N 33°48' W 030°19'1 0.6 1033.4 20.0
2014-Dec-14 05:00N 33°47' W 030°19'1 0.8 1033.6 20.0
2014-Dec-14 04:00N 33°48' W 030°20'0 0.0 1033.6 20.0
2014-Dec-14 03:00N 33°48' W 030°20'1 0.3 1033.7 20.1
2014-Dec-13 23:00N 33°49' W 030°18'5 0.2 1033.7 20.1
2014-Dec-12 22:00N 33°48' W 030°12'1 0.3 1028.3 20.2
2014-Dec-12 19:00N 33°48' W 030°11'1 0.7 1026.5 20.2
2014-Dec-12 18:00N 33°48' W 030°12'3 0.3 1026.0 20.2
2014-Dec-12 08:00N 33°50' W 030°09'1 0.1 1025.4 20.2
2014-Dec-12 04:00N 33°49' W 030°08'0 0.1 1025.8 20.2
2014-Dec-12 00:00N 33°49' W 030°08'1 1.2 1026.8 20.2
2014-Dec-11 23:00N 33°50' W 030°07'1 0.3 1026.8 20.2
2014-Dec-11 21:00N 33°51' W 030°06'0 0.0 1026.8 20.2
2014-Dec-11 20:00N 33°51' W 030°06'0 0.4 1026.6 20.2
2014-Dec-11 19:00N 33°50' W 030°06'1 0.3 1026.4 20.2
2014-Dec-11 17:00N 33°50' W 030°07'1 0.4 1026.2 20.2
2014-Dec-11 15:00N 33°49' W 030°06'1 0.5 1026.7 20.2
2014-Dec-11 12:00N 33°49' W 030°05'0 0.4 1029.0 20.2
2014-Dec-11 11:00N 33°50' W 030°05'1 0.6 1028.7 20.2
2014-Dec-11 10:00N 33°50' W 030°04'0 0.0 1028.2 20.2
2014-Dec-11 09:00N 33°50' W 030°04'1 0.3 1027.8 20.2
2014-Dec-11 07:00N 33°50' W 030°04'1 0.6 1027.0 20.2
2014-Dec-11 06:00N 33°49' W 030°03'0 0.0 1027.1 20.2
2014-Dec-11 05:00N 33°49' W 030°03'0 0.2 1027.3 20.2
2014-Dec-11 04:00N 33°49' W 030°03'0 0.0 1028.0 20.2
2014-Dec-11 02:00N 33°49' W 030°03'1 0.3 1028.4 20.2
2014-Dec-11 00:00N 33°50' W 030°03'1 0.7 1028.7 20.2
2014-Dec-10 23:00N 33°50' W 030°02'1 0.5 1028.7 20.2
2014-Dec-10 22:00N 33°51' W 030°03'2 0.9 1028.9 20.2
2014-Dec-10 20:00N 33°51' W 030°00'0 0.5 1028.3 20.2
2014-Dec-10 19:00N 33°50' W 030°01'0 0.0 1027.6 20.2
2014-Dec-10 18:00N 33°50' W 030°01'1 1.0 1027.3 20.2
2014-Dec-10 17:00N 33°51' W 029°60'0 0.1 1027.0 20.2
2014-Dec-10 16:00N 33°51' W 029°60'1 0.2 1026.9 20.3
2014-Dec-10 12:00N 33°51' W 029°59'   1028.4 20.2
Track history (hours):
 
Tides and Currents Weather Stations Pressure Air Temp Water Temp Dewpoint Dewpoint Depression Visibility Wind Speed Wind Dir Waves Ship Positions

Drifting buoy 13570

Last reported at 2014-Dec-20 12:00 UTC. Time now 2014-Dec-20 13:43 UTC.
Position N 33°46' W 030°25'.

Barometer 1033.5 mb
Water temperature 19.9 ° C

Date/timePositionNaut miles runAvg speedWind from/ knotsBaromVisibWave heightAir tempDewpointWater temp
2014-Dec-20 12:00N 33°46' W 030°25'0 0.2 1033.5 19.9
2014-Dec-20 11:00N 33°46' W 030°25'0 0.4 1033.2 19.9
2014-Dec-20 10:00N 33°45' W 030°26'1 0.3 1032.5 19.9
2014-Dec-20 08:00N 33°45' W 030°25'1 0.9 1031.9 19.9
2014-Dec-20 07:00N 33°46' W 030°24'2 1.5 1031.6 19.9
2014-Dec-20 06:00N 33°47' W 030°25'0 0.0 1031.6 19.9
2014-Dec-20 05:00N 33°47' W 030°25'0 0.0 1031.9 19.9
2014-Dec-20 04:00N 33°47' W 030°25'0 0.0 1031.8 19.9
2014-Dec-20 03:00N 33°47' W 030°25'0 0.0 1032.1 19.9
2014-Dec-20 02:00N 33°47' W 030°25'1 0.5 1032.2 19.9
2014-Dec-20 00:00N 33°47' W 030°26'1 0.5 1033.0 19.9
2014-Dec-19 22:00N 33°46' W 030°25'0 0.0 1032.4 19.9
2014-Dec-19 21:00N 33°46' W 030°25'0 0.0 1032.0 19.9
2014-Dec-19 20:00N 33°46' W 030°25'0 0.1 1031.5 19.9
2014-Dec-19 18:00N 33°46' W 030°25'1 0.4 1031.0 19.9
2014-Dec-19 16:00N 33°46' W 030°24'0 0.0 1030.7 20.0
2014-Dec-19 15:00N 33°46' W 030°24'0 0.2 1030.8 20.0
2014-Dec-19 14:00N 33°46' W 030°25'0 0.0 1031.3 20.0
2014-Dec-19 08:00N 33°46' W 030°25'0 0.2 1030.5 19.9
2014-Dec-19 07:00N 33°46' W 030°25'1 0.7 1030.3 19.9
2014-Dec-19 06:00N 33°46' W 030°24'1 0.6 1030.2 19.9
2014-Dec-19 04:00N 33°47' W 030°25'0 0.4 1029.9 19.9
2014-Dec-19 03:00N 33°47' W 030°24'1 1.0 1029.8 19.9
2014-Dec-19 02:00N 33°48' W 030°23'2 0.8 1030.2 19.9
2014-Dec-18 23:00N 33°47' W 030°26'0 0.3 1030.2 19.9
2014-Dec-18 22:00N 33°47' W 030°26'0 0.0 1030.1 19.9
2014-Dec-18 21:00N 33°47' W 030°26'0 0.2 1029.8 20.0
2014-Dec-18 19:00N 33°46' W 030°26'0 0.1 1028.7 20.0
2014-Dec-18 18:00N 33°46' W 030°26'1 1.4 1028.3 20.0
2014-Dec-18 17:00N 33°47' W 030°25'0 0.0 1028.2 20.0
2014-Dec-18 16:00N 33°47' W 030°25'1 0.6 1028.1 20.0
2014-Dec-18 15:00N 33°48' W 030°25'0 0.0 1028.2 20.0
2014-Dec-18 14:00N 33°48' W 030°25'0 0.2 1028.9 20.0
2014-Dec-18 12:00N 33°48' W 030°26'0 0.2 1030.1 20.0
2014-Dec-18 11:00N 33°48' W 030°26'0 0.2 1029.8 19.9
2014-Dec-18 10:00N 33°48' W 030°26'0 0.1 1029.1 19.9
2014-Dec-18 09:00N 33°48' W 030°26'0 0.1 1028.6 19.9
2014-Dec-18 08:00N 33°48' W 030°26'0 0.3 1028.3 19.9
2014-Dec-18 07:00N 33°48' W 030°26'1 0.5 1027.6 19.9
2014-Dec-18 06:00N 33°48' W 030°26'0 0.3 1027.8 19.9
2014-Dec-18 05:00N 33°48' W 030°26'1 0.7 1028.0 19.9
2014-Dec-18 04:00N 33°48' W 030°25'1 1.2 1028.2 19.9
2014-Dec-18 03:00N 33°48' W 030°26'1 0.2 1028.4 19.9
2014-Dec-17 23:00N 33°48' W 030°26'1 0.4 1029.5 20.0
2014-Dec-17 21:00N 33°48' W 030°27'1 0.5 1029.5 20.0
2014-Dec-17 19:00N 33°47' W 030°26'0 0.0 1028.9 20.0
2014-Dec-17 18:00N 33°47' W 030°26'1 0.7 1029.1 20.0
2014-Dec-17 17:00N 33°47' W 030°26'0 0.2 1029.2 20.0
2014-Dec-17 16:00N 33°48' W 030°25'1 0.2 1029.2 20.0
2014-Dec-17 12:00N 33°48' W 030°26'0 0.3 1031.9 20.0
2014-Dec-17 11:00N 33°48' W 030°26'1 1.2 1031.7 20.0
2014-Dec-17 10:00N 33°48' W 030°27'0 0.0 1031.6 19.9
2014-Dec-17 09:00N 33°48' W 030°27'1 0.5 1031.5 19.9
2014-Dec-17 08:00N 33°47' W 030°27'1 0.4 1031.0 20.0
2014-Dec-17 06:00N 33°47' W 030°26'1 0.7 1031.4 20.0
2014-Dec-17 05:00N 33°48' W 030°26'0 0.0 1031.9 20.0
2014-Dec-17 02:00N 33°48' W 030°26'1 0.4 1033.0 20.0
2014-Dec-17 00:00N 33°47' W 030°25'0 0.2 1033.5 20.0
2014-Dec-16 22:00N 33°47' W 030°26'0 0.0 1033.7 20.0
2014-Dec-16 21:00N 33°47' W 030°26'0 0.0 1033.5 20.0
2014-Dec-16 20:00N 33°47' W 030°26'1 0.5 1033.3 20.0
2014-Dec-16 18:00N 33°47' W 030°27'2 0.1 1033.2 20.0
2014-Dec-15 23:00N 33°47' W 030°25'1 0.8 1036.3 20.0
2014-Dec-15 22:00N 33°47' W 030°24'0 0.0 1036.1 19.9
2014-Dec-15 21:00N 33°47' W 030°24'0 0.0 1035.8 20.0
2014-Dec-15 19:00N 33°47' W 030°24'0 0.0 1035.1 20.0
2014-Dec-15 18:00N 33°47' W 030°24'0 0.0 1034.7 20.0
2014-Dec-15 17:00N 33°47' W 030°24'1 0.6 1034.5 20.0
2014-Dec-15 16:00N 33°47' W 030°24'1 0.6 1034.5 20.0
2014-Dec-15 15:00N 33°47' W 030°24'0 0.0 1034.7 20.0
2014-Dec-15 14:00N 33°47' W 030°24'1 0.7 1035.2 20.0
2014-Dec-15 12:00N 33°47' W 030°22'1 1.2 1036.1 20.0
2014-Dec-15 11:00N 33°47' W 030°23'0 0.0 1035.8 20.0
2014-Dec-15 10:00N 33°47' W 030°23'1 0.6 1035.3 20.0
2014-Dec-15 08:00N 33°47' W 030°22'0 0.5 1034.8 20.0
2014-Dec-15 07:00N 33°47' W 030°23'0 0.0 1034.4 20.0
2014-Dec-15 06:00N 33°47' W 030°23'0 0.0 1034.4 20.0
2014-Dec-15 05:00N 33°47' W 030°23'1 0.6 1034.7 20.0
2014-Dec-15 04:00N 33°46' W 030°23'2 1.6 1034.9 20.0
2014-Dec-15 03:00N 33°47' W 030°21'0 0.1 1034.7 20.0
2014-Dec-14 23:00N 33°47' W 030°20'1 0.8 1035.8 20.0
2014-Dec-14 22:00N 33°47' W 030°21'1 0.6 1035.5 20.0
2014-Dec-14 21:00N 33°48' W 030°21'1 0.8 1035.4 20.0
2014-Dec-14 20:00N 33°47' W 030°20'0 0.0 1034.7 20.0
2014-Dec-14 19:00N 33°47' W 030°20'0 0.5 1034.1 20.0
2014-Dec-14 18:00N 33°47' W 030°21'0 0.5 1033.9 20.0
2014-Dec-14 17:00N 33°47' W 030°20'0 0.5 1033.5 20.0
2014-Dec-14 16:00N 33°47' W 030°21'0 0.0 1033.4 20.0
2014-Dec-14 15:00N 33°47' W 030°21'0 0.0 1033.6 20.1
2014-Dec-14 14:00N 33°47' W 030°21'1 0.7 1034.3 20.1
2014-Dec-14 12:00N 33°47' W 030°19'1 0.6 1035.7 20.0
2014-Dec-14 11:00N 33°48' W 030°19'0 0.0 1035.6 20.0
2014-Dec-14 10:00N 33°48' W 030°19'0 0.0 1035.0 20.0
2014-Dec-14 09:00N 33°48' W 030°19'0 0.0 1034.3 20.0
2014-Dec-14 07:00N 33°48' W 030°19'0 0.0 1033.5 20.0
2014-Dec-14 06:00N 33°48' W 030°19'1 0.6 1033.4 20.0
2014-Dec-14 05:00N 33°47' W 030°19'1 0.8 1033.6 20.0
2014-Dec-14 04:00N 33°48' W 030°20'0 0.0 1033.6 20.0
2014-Dec-14 03:00N 33°48' W 030°20'1 0.3 1033.7 20.1
2014-Dec-13 23:00N 33°49' W 030°18'5 0.2 1033.7 20.1
2014-Dec-12 22:00N 33°48' W 030°12'1 0.3 1028.3 20.2
2014-Dec-12 19:00N 33°48' W 030°11'1 0.7 1026.5 20.2
2014-Dec-12 18:00N 33°48' W 030°12'3 0.3 1026.0 20.2
2014-Dec-12 08:00N 33°50' W 030°09'1 0.1 1025.4 20.2
2014-Dec-12 04:00N 33°49' W 030°08'0 0.1 1025.8 20.2
2014-Dec-12 00:00N 33°49' W 030°08'1 1.2 1026.8 20.2
2014-Dec-11 23:00N 33°50' W 030°07'1 0.3 1026.8 20.2
2014-Dec-11 21:00N 33°51' W 030°06'0 0.0 1026.8 20.2
2014-Dec-11 20:00N 33°51' W 030°06'0 0.4 1026.6 20.2
2014-Dec-11 19:00N 33°50' W 030°06'1 0.3 1026.4 20.2
2014-Dec-11 17:00N 33°50' W 030°07'1 0.4 1026.2 20.2
2014-Dec-11 15:00N 33°49' W 030°06'1 0.5 1026.7 20.2
2014-Dec-11 12:00N 33°49' W 030°05'0 0.4 1029.0 20.2
2014-Dec-11 11:00N 33°50' W 030°05'1 0.6 1028.7 20.2
2014-Dec-11 10:00N 33°50' W 030°04'0 0.0 1028.2 20.2
2014-Dec-11 09:00N 33°50' W 030°04'1 0.3 1027.8 20.2
2014-Dec-11 07:00N 33°50' W 030°04'1 0.6 1027.0 20.2
2014-Dec-11 06:00N 33°49' W 030°03'0 0.0 1027.1 20.2
2014-Dec-11 05:00N 33°49' W 030°03'0 0.2 1027.3 20.2
2014-Dec-11 04:00N 33°49' W 030°03'0 0.0 1028.0 20.2
2014-Dec-11 02:00N 33°49' W 030°03'1 0.3 1028.4 20.2
2014-Dec-11 00:00N 33°50' W 030°03'1 0.7 1028.7 20.2
2014-Dec-10 23:00N 33°50' W 030°02'1 0.5 1028.7 20.2
2014-Dec-10 22:00N 33°51' W 030°03'2 0.9 1028.9 20.2
2014-Dec-10 20:00N 33°51' W 030°00'0 0.5 1028.3 20.2
2014-Dec-10 19:00N 33°50' W 030°01'0 0.0 1027.6 20.2
2014-Dec-10 18:00N 33°50' W 030°01'1 1.0 1027.3 20.2
2014-Dec-10 17:00N 33°51' W 029°60'0 0.1 1027.0 20.2
2014-Dec-10 16:00N 33°51' W 029°60'1 0.2 1026.9 20.3
2014-Dec-10 12:00N 33°51' W 029°59'   1028.4 20.2

Dump ship's entire track history